createdAt,value
2022-11-24T00:00:10.094Z,5.4
2022-11-24T00:05:10.095Z,5.3
2022-11-24T00:10:10.098Z,5.6
2022-11-24T00:15:10.096Z,5.6
2022-11-24T00:20:10.087Z,5.7
2022-11-24T00:25:10.105Z,5.8
2022-11-24T00:30:10.106Z,6
2022-11-24T00:35:10.113Z,6.2
2022-11-24T00:40:10.092Z,6.3
2022-11-24T00:45:13.704Z,6.3
2022-11-24T00:50:10.103Z,6.2
2022-11-24T00:55:10.114Z,6.1
2022-11-24T01:00:10.099Z,6.1
2022-11-24T01:05:10.098Z,6.1
2022-11-24T01:10:10.092Z,6
2022-11-24T01:15:10.101Z,6
2022-11-24T01:20:10.100Z,6
2022-11-24T01:25:10.104Z,6
2022-11-24T01:30:10.099Z,5.9
2022-11-24T01:35:10.106Z,5.8
2022-11-24T01:40:10.101Z,5.8
2022-11-24T01:45:10.095Z,5.8
2022-11-24T01:50:10.097Z,5.8
2022-11-24T01:55:10.104Z,5.9
2022-11-24T02:00:10.100Z,5.8
2022-11-24T02:05:10.097Z,5.8
2022-11-24T02:10:10.111Z,5.8
2022-11-24T02:15:10.098Z,5.8
2022-11-24T02:20:10.102Z,5.8
2022-11-24T02:25:10.110Z,5.9
2022-11-24T02:30:10.113Z,5.9
2022-11-24T02:35:10.096Z,6
2022-11-24T02:40:10.095Z,5.9
2022-11-24T02:45:10.103Z,5.7
2022-11-24T02:50:10.097Z,5.6
2022-11-24T02:55:10.099Z,5.6
2022-11-24T03:00:10.087Z,5.6
2022-11-24T03:05:10.100Z,5.6
2022-11-24T03:10:10.095Z,5.7
2022-11-24T03:15:10.105Z,5.8
2022-11-24T03:20:10.103Z,5.8
2022-11-24T03:25:10.106Z,5.9
2022-11-24T03:30:10.094Z,6
2022-11-24T03:35:10.101Z,6
2022-11-24T03:40:10.096Z,5.9
2022-11-24T03:45:38.444Z,5.8
2022-11-24T03:50:10.105Z,5.9
2022-11-24T03:55:10.101Z,5.9
2022-11-24T04:00:10.102Z,5.9
2022-11-24T04:05:10.124Z,6
2022-11-24T04:10:10.099Z,6
2022-11-24T04:15:10.099Z,6.1
2022-11-24T04:20:10.096Z,6
2022-11-24T04:25:10.103Z,5.9
2022-11-24T04:30:10.106Z,5.7
2022-11-24T04:35:10.107Z,5.6
2022-11-24T04:40:10.093Z,5.5
2022-11-24T04:45:10.093Z,5.5
2022-11-24T04:50:10.091Z,5.4
2022-11-24T04:55:10.096Z,5.4
2022-11-24T05:00:10.094Z,5.4
2022-11-24T05:05:10.103Z,5.3
2022-11-24T05:10:10.094Z,5.5
2022-11-24T05:15:10.100Z,5.4
2022-11-24T05:20:10.092Z,5.2
2022-11-24T05:25:10.104Z,5.1
2022-11-24T05:30:10.093Z,5.1
2022-11-24T05:35:10.126Z,5
2022-11-24T05:40:10.105Z,4.9
2022-11-24T05:45:10.100Z,4.7
2022-11-24T05:50:10.106Z,4.8
2022-11-24T05:55:10.104Z,4.9
2022-11-24T06:00:10.091Z,5
2022-11-24T06:05:10.099Z,5.2
2022-11-24T06:10:10.108Z,5.3
2022-11-24T06:15:10.093Z,5.3
2022-11-24T06:20:10.101Z,5.5
2022-11-24T06:25:10.108Z,5.6
2022-11-24T06:30:10.111Z,5.7
2022-11-24T06:35:10.104Z,5.8
2022-11-24T06:40:10.105Z,6
2022-11-24T06:45:10.101Z,6.1
2022-11-24T06:50:10.091Z,6.2
2022-11-24T06:55:10.158Z,6.3
2022-11-24T07:00:10.353Z,6.2
2022-11-24T07:05:10.095Z,6.2
2022-11-24T07:10:10.111Z,6.2
2022-11-24T07:15:10.107Z,6.2
2022-11-24T07:20:10.092Z,6.3
2022-11-24T07:25:10.096Z,6.2
2022-11-24T07:30:10.112Z,6.2
2022-11-24T07:35:10.118Z,6.2
2022-11-24T07:40:10.088Z,6.2
2022-11-24T07:45:10.098Z,6.4
2022-11-24T07:50:10.105Z,6.4
2022-11-24T07:55:10.104Z,6.5
2022-11-24T08:00:10.102Z,6.4
2022-11-24T08:05:10.123Z,6.4
2022-11-24T08:10:10.101Z,6.4
2022-11-24T08:15:11.261Z,6.4
2022-11-24T08:20:10.090Z,6.4
2022-11-24T08:25:10.101Z,6.4
2022-11-24T08:30:10.098Z,6.5
2022-11-24T08:35:13.811Z,6.5
2022-11-24T08:40:10.117Z,6.5
2022-11-24T08:45:20.222Z,6.6
2022-11-24T08:50:10.104Z,6.6
2022-11-24T08:55:10.106Z,6.7
2022-11-24T09:00:10.120Z,6.7
2022-11-24T09:05:29.009Z,6.8
2022-11-24T09:10:10.104Z,6.8
2022-11-24T09:15:10.106Z,6.9
2022-11-24T09:20:10.100Z,7
2022-11-24T09:25:10.099Z,7.1
2022-11-24T09:30:10.107Z,7.1
2022-11-24T09:35:10.099Z,7.2
2022-11-24T09:40:10.096Z,7.4
2022-11-24T09:45:10.100Z,7.5
2022-11-24T09:50:10.097Z,7.6
2022-11-24T09:55:10.233Z,7.7
2022-11-24T10:00:10.101Z,7.7
2022-11-24T10:05:10.134Z,7.7
2022-11-24T10:10:10.093Z,7.7
2022-11-24T10:15:10.096Z,7.7
2022-11-24T10:20:10.109Z,7.8
2022-11-24T10:25:10.100Z,7.8
2022-11-24T10:30:10.101Z,7.9
2022-11-24T10:35:10.113Z,7.9
2022-11-24T10:40:17.127Z,7.9
2022-11-24T10:45:10.106Z,7.9
2022-11-24T10:50:10.106Z,7.8
2022-11-24T10:55:10.101Z,8
2022-11-24T11:00:10.093Z,8.2
2022-11-24T11:05:10.105Z,8.2
2022-11-24T11:10:10.100Z,8.3
2022-11-24T11:15:10.103Z,8.3
2022-11-24T11:20:10.098Z,8.4
2022-11-24T11:25:10.110Z,8.3
2022-11-24T11:35:10.112Z,8.4
2022-11-24T11:40:10.101Z,8.4
2022-11-24T11:45:10.122Z,8.5
2022-11-24T11:50:10.097Z,8.5
2022-11-24T11:55:10.105Z,8.7
2022-11-24T12:00:10.095Z,8.7
2022-11-24T12:05:10.096Z,8.7
2022-11-24T12:10:10.093Z,8.7
2022-11-24T12:15:11.117Z,8.6
2022-11-24T12:20:10.089Z,8.6
2022-11-24T12:25:10.100Z,8.6
2022-11-24T12:30:10.099Z,8.7
2022-11-24T12:35:10.103Z,8.7
2022-11-24T12:40:10.103Z,8.7
2022-11-24T12:45:10.106Z,8.7
2022-11-24T12:50:10.100Z,8.7
2022-11-24T12:55:10.104Z,8.7
2022-11-24T13:00:10.101Z,8.7
2022-11-24T13:05:10.104Z,8.7
2022-11-24T13:10:10.144Z,8.7
2022-11-24T13:15:19.326Z,8.7
2022-11-24T13:20:10.190Z,8.7
2022-11-24T13:25:10.112Z,8.7
2022-11-24T13:30:10.154Z,8.7
2022-11-24T13:35:10.111Z,8.7
2022-11-24T13:40:10.175Z,8.7
2022-11-24T13:45:10.123Z,8.7
2022-11-24T13:50:10.162Z,8.7
2022-11-24T13:55:11.527Z,8.6
2022-11-24T14:00:10.092Z,8.7
2022-11-24T14:05:10.107Z,8.6
2022-11-24T14:10:10.096Z,8.6
2022-11-24T14:15:10.109Z,8.6
2022-11-24T14:20:10.104Z,8.7
2022-11-24T14:25:10.099Z,8.8
2022-11-24T14:30:10.101Z,8.9
2022-11-24T14:35:10.222Z,8.9
2022-11-24T14:40:10.093Z,8.9
2022-11-24T14:45:10.100Z,8.8
2022-11-24T14:50:10.132Z,8.8
2022-11-24T14:55:22.215Z,8.8
2022-11-24T15:00:10.096Z,8.3
2022-11-24T15:05:10.488Z,8.1
2022-11-24T15:10:10.089Z,7.9
2022-11-24T15:15:10.099Z,7.8
2022-11-24T15:20:10.083Z,7.8
2022-11-24T15:25:10.091Z,7.8
2022-11-24T15:30:10.092Z,7.6
2022-11-24T15:35:10.092Z,7.5
2022-11-24T15:40:10.100Z,7.4
2022-11-24T15:45:10.092Z,7.4
2022-11-24T15:50:10.092Z,7.3
2022-11-24T15:55:10.102Z,7.1
2022-11-24T16:00:10.090Z,7
2022-11-24T16:05:10.098Z,7
2022-11-24T16:10:10.090Z,6.7
2022-11-24T16:15:10.112Z,6.7
2022-11-24T16:20:10.087Z,6.7
2022-11-24T16:25:10.101Z,6.6
2022-11-24T16:30:10.093Z,6.5
2022-11-24T16:35:10.114Z,6
2022-11-24T16:40:10.096Z,5.9
2022-11-24T16:45:10.107Z,6
2022-11-24T16:50:10.094Z,6.2
2022-11-24T16:55:10.097Z,6.4
2022-11-24T17:00:10.093Z,6.4
2022-11-24T17:05:10.095Z,6.3
2022-11-24T17:10:10.089Z,6.3
2022-11-24T17:15:31.486Z,6.3
2022-11-24T17:20:10.093Z,6.2
2022-11-24T17:25:10.094Z,6.2
2022-11-24T17:30:10.096Z,6.3
2022-11-24T17:35:10.093Z,6.4
2022-11-24T17:40:27.697Z,6.4
2022-11-24T17:45:10.103Z,6.3
2022-11-24T17:50:10.089Z,6.2
2022-11-24T17:55:10.105Z,6.4
2022-11-24T18:00:10.094Z,6.4
2022-11-24T18:05:10.098Z,6.4
2022-11-24T18:10:10.103Z,6.4
2022-11-24T18:15:10.102Z,6.4
2022-11-24T18:20:10.081Z,6.4
2022-11-24T18:25:10.091Z,6.3
2022-11-24T18:30:10.099Z,6.2
2022-11-24T18:35:10.096Z,6.2
2022-11-24T18:40:10.089Z,6.2
2022-11-24T18:45:10.097Z,6.1
2022-11-24T18:50:10.084Z,6.1
2022-11-24T18:55:10.090Z,6
2022-11-24T19:00:10.085Z,6
2022-11-24T19:05:10.098Z,5.7
2022-11-24T19:10:10.093Z,5.6
2022-11-24T19:15:10.095Z,5.7
2022-11-24T19:20:10.088Z,5.7
2022-11-24T19:25:10.091Z,5.7
2022-11-24T19:30:10.081Z,5.7
2022-11-24T19:35:10.103Z,5.2
2022-11-24T19:40:10.084Z,5.2
2022-11-24T19:45:10.100Z,5.2
2022-11-24T19:50:10.582Z,5.3
2022-11-24T19:55:10.091Z,5.2
2022-11-24T20:00:10.101Z,5.2
2022-11-24T20:05:10.101Z,5.4
2022-11-24T20:10:10.089Z,5.3
2022-11-24T20:15:10.108Z,5.3
2022-11-24T20:20:10.092Z,5.2
2022-11-24T20:25:10.087Z,5
2022-11-24T20:30:10.088Z,4.9
2022-11-24T20:35:13.593Z,4.8
2022-11-24T20:40:10.088Z,4.7
2022-11-24T20:45:10.095Z,4.7
2022-11-24T20:50:10.097Z,4.7
2022-11-24T20:55:10.108Z,4.8
2022-11-24T21:00:10.080Z,4.8
2022-11-24T21:05:10.094Z,4.7
2022-11-24T21:10:10.093Z,5
2022-11-24T21:15:10.094Z,5.1
2022-11-24T21:20:10.087Z,5.1
2022-11-24T21:25:10.101Z,5.1
2022-11-24T21:30:10.090Z,4.8
2022-11-24T21:35:10.106Z,4
2022-11-24T21:40:10.088Z,3.5
2022-11-24T21:45:10.088Z,3.2
2022-11-24T21:50:10.099Z,3
2022-11-24T21:55:10.102Z,3
2022-11-24T22:00:10.103Z,2.7
2022-11-24T22:05:10.104Z,2.4
2022-11-24T22:10:10.092Z,2.4
2022-11-24T22:15:10.102Z,2.3
2022-11-24T22:20:10.101Z,2.2
2022-11-24T22:25:10.096Z,2.7
2022-11-24T22:30:10.088Z,3.2
2022-11-24T22:35:10.086Z,3.2
2022-11-24T22:40:10.085Z,3
2022-11-24T22:45:10.086Z,2.8
2022-11-24T22:50:10.085Z,2.6
2022-11-24T22:55:10.087Z,2.5
2022-11-24T23:00:10.085Z,2.4
2022-11-24T23:05:10.098Z,2.5
2022-11-24T23:10:10.153Z,2.5
2022-11-24T23:15:10.108Z,2.6
2022-11-24T23:20:10.082Z,2.6
2022-11-24T23:25:10.101Z,2.5
2022-11-24T23:30:10.089Z,2.5
2022-11-24T23:35:13.717Z,2.6
2022-11-24T23:40:10.088Z,2.6
2022-11-24T23:45:10.096Z,2.6
2022-11-24T23:50:10.079Z,2.5
2022-11-24T23:55:10.099Z,2.2
